createdAt,value
2019-05-29T00:01:28.802Z,1096.53
2019-05-29T00:06:32.618Z,1075.20
2019-05-29T00:11:36.332Z,1053.67
2019-05-29T00:16:40.137Z,1021.70
2019-05-29T00:21:43.903Z,987.10
2019-05-29T00:26:47.649Z,1010.37
2019-05-29T00:31:51.440Z,1124.03
2019-05-29T00:36:55.261Z,1020.27
2019-05-29T00:41:58.980Z,1116.70
2019-05-29T00:47:02.760Z,1182.60
2019-05-29T00:52:06.562Z,943.93
2019-05-29T00:57:10.875Z,943.50
2019-05-29T01:02:15.857Z,1032.67
2019-05-29T01:07:20.497Z,1052.57
2019-05-29T01:12:24.325Z,924.27
2019-05-29T01:17:28.158Z,1004.57
2019-05-29T01:22:32.510Z,955.77
2019-05-29T01:27:36.220Z,892.30
2019-05-29T01:32:40.454Z,1024.30
2019-05-29T01:37:44.249Z,1088.83
2019-05-29T01:42:50.087Z,963.90
2019-05-29T01:47:53.545Z,985.67
2019-05-29T01:52:57.544Z,910.23
2019-05-29T01:58:01.289Z,1103.10
2019-05-29T02:03:05.028Z,1272.23
2019-05-29T02:08:09.538Z,1240.17
2019-05-29T02:13:13.286Z,1097.13
2019-05-29T02:18:17.049Z,1205.97
2019-05-29T02:23:22.021Z,1117.13
2019-05-29T02:28:26.798Z,1098.43
2019-05-29T02:33:30.667Z,1384.33
2019-05-29T02:38:34.471Z,1033.27
2019-05-29T02:43:38.216Z,932.07
2019-05-29T02:48:41.987Z,1134.00
2019-05-29T02:53:45.718Z,1010.53
2019-05-29T02:58:49.465Z,935.17
2019-05-29T03:03:53.627Z,970.30
2019-05-29T03:08:57.769Z,1182.67
2019-05-29T03:14:01.526Z,1619.50
2019-05-29T03:19:05.398Z,1798.17
2019-05-29T03:24:09.494Z,1723.90
2019-05-29T03:29:13.289Z,1867.47
2019-05-29T03:34:17.380Z,1669.17
2019-05-29T03:39:21.383Z,1411.00
2019-05-29T03:44:30.606Z,1209.03
2019-05-29T03:49:35.204Z,1069.57
2019-05-29T03:54:39.166Z,1142.33
2019-05-29T03:59:43.240Z,1263.40
2019-05-29T04:04:47.221Z,967.70
2019-05-29T04:09:50.937Z,844.03
2019-05-29T04:14:54.778Z,871.63
2019-05-29T04:19:59.099Z,986.50
2019-05-29T04:25:05.055Z,916.90
2019-05-29T04:30:09.042Z,1172.67
2019-05-29T04:35:12.916Z,934.00
2019-05-29T04:40:17.014Z,913.83
2019-05-29T04:45:20.712Z,1012.60
2019-05-29T04:50:24.519Z,1501.20
2019-05-29T04:55:28.642Z,927.53
2019-05-29T05:00:33.084Z,811.63
2019-05-29T05:05:37.442Z,894.97
2019-05-29T05:10:41.827Z,894.63
2019-05-29T05:15:46.632Z,823.60
2019-05-29T05:20:50.362Z,906.17
2019-05-29T05:25:54.077Z,1206.27
2019-05-29T05:30:58.186Z,1314.00
2019-05-29T05:36:01.900Z,1600.53
2019-05-29T05:41:05.670Z,1999.90
2019-05-29T05:46:09.510Z,1999.90
2019-05-29T05:51:13.226Z,1999.90
2019-05-29T05:56:17.051Z,1999.90
2019-05-29T06:01:20.974Z,1999.90
2019-05-29T06:06:24.737Z,1906.73
2019-05-29T06:11:28.466Z,1999.90
2019-05-29T06:16:32.961Z,1999.90
2019-05-29T06:21:36.782Z,1999.90
2019-05-29T06:26:41.058Z,1999.90
2019-05-29T06:31:44.998Z,1952.30
2019-05-29T06:36:48.762Z,1999.90
2019-05-29T06:41:52.088Z,1999.90
2019-05-29T06:46:55.465Z,1999.90
2019-05-29T06:51:59.189Z,1999.90
2019-05-29T06:57:03.026Z,1999.90
2019-05-29T07:02:06.762Z,1999.90
2019-05-29T07:07:10.483Z,1999.90
2019-05-29T07:12:14.269Z,1999.90
2019-05-29T07:17:18.105Z,1999.90
2019-05-29T07:22:21.838Z,1999.90
2019-05-29T07:27:25.887Z,1999.90
2019-05-29T07:32:30.011Z,1999.90
2019-05-29T07:37:33.825Z,1999.90
2019-05-29T07:42:40.030Z,1877.00
2019-05-29T07:47:44.626Z,1999.90
2019-05-29T07:52:49.128Z,1999.90
2019-05-29T07:57:53.120Z,1999.90
2019-05-29T08:02:58.041Z,1999.90
2019-05-29T08:08:01.956Z,1999.90
2019-05-29T08:13:05.763Z,1569.43
2019-05-29T08:18:09.561Z,1999.90
2019-05-29T08:23:13.277Z,1999.90
2019-05-29T08:28:17.019Z,1924.60
2019-05-29T08:33:20.786Z,1999.90
2019-05-29T08:38:24.814Z,1999.90
2019-05-29T08:43:28.566Z,1999.90
2019-05-29T08:48:32.318Z,1457.90
2019-05-29T08:53:36.540Z,1999.90
2019-05-29T08:58:40.625Z,1980.87
2019-05-29T09:03:44.881Z,1999.90
2019-05-29T09:08:50.514Z,1090.73
2019-05-29T09:13:54.241Z,1999.90
2019-05-29T09:18:57.651Z,1999.90
2019-05-29T09:24:02.557Z,1999.90
2019-05-29T09:29:05.859Z,1999.90
2019-05-29T09:34:09.201Z,265.17
2019-05-29T09:39:12.639Z,1999.90
2019-05-29T09:44:31.111Z,118.30
2019-05-29T09:49:23.880Z,1999.90
2019-05-29T09:54:28.080Z,95.73
2019-05-29T09:59:31.977Z,1999.90
2019-05-29T10:04:35.839Z,1999.90
2019-05-29T10:09:39.670Z,1999.90
2019-05-29T10:14:43.462Z,1315.93
2019-05-29T10:19:47.233Z,1999.90
2019-05-29T10:24:51.481Z,1999.90
2019-05-29T10:30:01.218Z,1999.90
2019-05-29T10:35:05.426Z,999.67
2019-05-29T10:40:09.835Z,144.13
2019-05-29T10:45:13.982Z,1999.90
2019-05-29T10:50:18.078Z,1999.90
2019-05-29T10:55:24.130Z,1999.90
2019-05-29T11:00:27.975Z,106.93
2019-05-29T11:05:32.643Z,297.07
2019-05-29T11:10:36.728Z,1999.90
2019-05-29T11:15:40.559Z,1999.90
2019-05-29T11:20:44.312Z,88.30
2019-05-29T11:25:49.878Z,885.70
2019-05-29T11:30:54.148Z,960.13
2019-05-29T11:36:09.938Z,1999.90
2019-05-29T11:41:25.338Z,1999.90
2019-05-29T11:46:10.724Z,1853.97
2019-05-29T11:51:14.881Z,1180.27
2019-05-29T11:56:18.671Z,113.70
2019-05-29T12:01:22.409Z,1962.83
2019-05-29T12:06:26.494Z,1999.90
2019-05-29T12:11:30.314Z,1282.57
2019-05-29T12:16:34.078Z,1999.90
2019-05-29T12:21:42.386Z,1819.33
2019-05-29T12:26:43.593Z,771.13
2019-05-29T12:31:48.374Z,1999.90
2019-05-29T12:36:53.299Z,1999.90
2019-05-29T12:41:57.566Z,153.33
2019-05-29T12:47:04.063Z,1999.90
2019-05-29T12:52:09.152Z,1527.13
2019-05-29T12:57:14.019Z,326.80
2019-05-29T13:02:18.043Z,1285.73
2019-05-29T13:07:22.458Z,695.40
2019-05-29T13:12:25.764Z,98.13
2019-05-29T13:17:29.602Z,172.93
2019-05-29T13:22:32.960Z,767.00
2019-05-29T13:27:36.313Z,578.03
2019-05-29T13:32:40.053Z,196.63
2019-05-29T13:37:43.374Z,307.27
2019-05-29T13:42:47.135Z,195.60
2019-05-29T13:47:51.056Z,712.23
2019-05-29T13:52:55.081Z,143.87
2019-05-29T13:57:59.543Z,249.23
2019-05-29T14:03:04.892Z,119.53
2019-05-29T14:08:09.158Z,132.47
2019-05-29T14:13:13.246Z,628.90
2019-05-29T14:18:16.958Z,89.33
2019-05-29T14:23:20.730Z,273.63
2019-05-29T14:28:24.762Z,584.63
2019-05-29T14:33:29.532Z,170.17
2019-05-29T14:38:33.743Z,84.80
2019-05-29T14:43:37.441Z,101.53
2019-05-29T14:48:41.138Z,96.90
2019-05-29T14:53:44.931Z,87.73
2019-05-29T14:58:48.643Z,101.70
2019-05-29T15:03:52.456Z,92.90
2019-05-29T15:08:56.179Z,208.03
2019-05-29T15:13:59.910Z,535.20
2019-05-29T15:19:04.936Z,295.73
2019-05-29T15:24:09.497Z,85.73
2019-05-29T15:29:16.337Z,103.67
2019-05-29T15:34:18.802Z,89.17
2019-05-29T15:39:22.922Z,92.10
2019-05-29T15:44:26.663Z,123.33
2019-05-29T15:49:31.581Z,142.37
2019-05-29T15:54:35.639Z,146.67
2019-05-29T15:59:39.378Z,1196.50
2019-05-29T16:04:43.135Z,86.50
2019-05-29T16:09:46.975Z,89.20
2019-05-29T16:14:51.062Z,87.77
2019-05-29T16:19:54.805Z,1859.30
2019-05-29T16:24:58.662Z,1104.67
2019-05-29T16:30:02.410Z,1169.53
2019-05-29T16:35:08.001Z,180.83
2019-05-29T16:40:13.696Z,766.80
2019-05-29T16:45:18.829Z,1049.83
2019-05-29T16:50:23.250Z,269.50
2019-05-29T16:55:28.042Z,205.10
2019-05-29T17:00:31.870Z,253.53
2019-05-29T17:05:35.669Z,137.77
2019-05-29T17:10:39.439Z,1881.67
2019-05-29T17:15:43.569Z,1331.23
2019-05-29T17:20:47.682Z,1924.53
2019-05-29T17:25:51.434Z,1999.90
2019-05-29T17:30:55.226Z,1905.33
2019-05-29T17:35:58.933Z,1999.90
2019-05-29T17:41:02.655Z,1999.90
2019-05-29T17:46:06.468Z,1757.57
2019-05-29T17:51:10.262Z,1999.90
2019-05-29T17:56:28.320Z,1999.90
2019-05-29T18:01:22.241Z,1999.90
2019-05-29T18:06:26.433Z,127.93
2019-05-29T18:11:30.341Z,442.93
2019-05-29T18:16:35.129Z,1308.20
2019-05-29T18:21:39.935Z,694.37
2019-05-29T18:26:47.301Z,226.37
2019-05-29T18:31:49.469Z,89.83
2019-05-29T18:36:53.203Z,886.27
2019-05-29T18:41:56.980Z,722.70
2019-05-29T18:47:00.686Z,1024.13
2019-05-29T18:52:04.719Z,1082.57
2019-05-29T18:57:14.982Z,1444.43
2019-05-29T19:02:13.943Z,1981.43
2019-05-29T19:07:17.973Z,1999.90
2019-05-29T19:12:21.797Z,1999.90
2019-05-29T19:17:26.032Z,1999.90
2019-05-29T19:22:30.547Z,1999.90
2019-05-29T19:27:41.516Z,1999.90
2019-05-29T19:32:40.134Z,1587.77
2019-05-29T19:37:43.878Z,1552.03
2019-05-29T19:42:47.858Z,1466.70
2019-05-29T19:47:51.581Z,1662.80
2019-05-29T19:52:55.618Z,1291.43
2019-05-29T19:57:59.441Z,1541.33
2019-05-29T20:03:03.207Z,909.20
2019-05-29T20:08:08.969Z,860.60
2019-05-29T20:13:13.789Z,906.57
2019-05-29T20:18:18.044Z,1262.73
2019-05-29T20:23:21.782Z,1103.53
2019-05-29T20:28:25.519Z,839.63
2019-05-29T20:33:30.377Z,938.80
2019-05-29T20:38:35.059Z,879.20
2019-05-29T20:43:39.762Z,858.23
2019-05-29T20:48:43.562Z,796.43
2019-05-29T20:53:47.539Z,887.93
2019-05-29T20:58:51.261Z,1075.93
2019-05-29T21:03:55.114Z,1113.27
2019-05-29T21:08:59.115Z,1040.17
2019-05-29T21:14:02.958Z,851.50
2019-05-29T21:19:06.955Z,1035.30
2019-05-29T21:24:10.918Z,1258.20
2019-05-29T21:29:14.661Z,1182.40
2019-05-29T21:34:18.494Z,1179.80
2019-05-29T21:39:22.281Z,1250.53
2019-05-29T21:44:26.355Z,1610.10
2019-05-29T21:49:31.485Z,1530.97
2019-05-29T21:54:35.646Z,1647.83
2019-05-29T21:59:39.679Z,1044.20
2019-05-29T22:04:44.595Z,1015.53
2019-05-29T22:09:50.209Z,830.63
2019-05-29T22:14:55.143Z,991.10
2019-05-29T22:19:59.123Z,851.80
2019-05-29T22:25:03.095Z,911.43
2019-05-29T22:30:07.845Z,934.37
2019-05-29T22:35:12.102Z,913.13
2019-05-29T22:40:16.415Z,857.93
2019-05-29T22:45:20.984Z,831.67
2019-05-29T22:50:25.798Z,865.13
2019-05-29T22:55:29.770Z,843.43
2019-05-29T23:00:34.916Z,871.60
2019-05-29T23:05:38.730Z,827.57
2019-05-29T23:10:42.835Z,962.07
2019-05-29T23:15:47.678Z,1025.17
2019-05-29T23:20:52.386Z,1520.73
2019-05-29T23:25:56.534Z,901.50
2019-05-29T23:31:00.997Z,1315.03
2019-05-29T23:36:05.087Z,1631.83
2019-05-29T23:41:09.107Z,1262.47
2019-05-29T23:46:13.679Z,1133.90
2019-05-29T23:51:17.677Z,1111.83
2019-05-29T23:56:21.510Z,1260.83
